Time;durP1;ratioP1;P1;durP2;ratioP2;P2;SDS_P1;SDS_P2;PMS_P1;PMS_P2;Temp;Humidity;BMP_temperature;BMP_pressure;BME280_temperature;BME280_humidity;BME280_pressure;Samples;Min_cycle;Max_cycle;Signal;HPM_P1;HPM_P2
2021/05/30 00:00:12;;;;;;;38.13;22.50;;;11.10;99.90;;;;;;5082465;28;20223;-63
2021/05/30 00:02:41;;;;;;;36.00;21.87;;;11.10;99.90;;;;;;5087135;28;20210;-64
2021/05/30 00:05:11;;;;;;;37.43;21.50;;;11.10;99.90;;;;;;5083051;28;20282;-64
2021/05/30 00:07:39;;;;;;;33.67;21.40;;;11.00;99.90;;;;;;5081474;28;20231;-63
2021/05/30 00:10:09;;;;;;;36.53;21.97;;;11.00;99.90;;;;;;5090284;28;20199;-64
2021/05/30 00:12:37;;;;;;;30.73;20.73;;;11.00;99.90;;;;;;5087657;28;20223;-64
2021/05/30 00:15:09;;;;;;;41.50;21.67;;;10.90;99.90;;;;;;5086690;28;20191;-64
2021/05/30 00:17:38;;;;;;;43.37;23.47;;;10.80;99.90;;;;;;5069276;28;20593;-64
2021/05/30 00:20:08;;;;;;;41.57;22.03;;;10.80;99.90;;;;;;5081747;28;20196;-64
2021/05/30 00:22:37;;;;;;;36.93;22.27;;;10.80;99.90;;;;;;5087060;28;20184;-64
2021/05/30 00:25:07;;;;;;;36.67;21.80;;;10.70;99.90;;;;;;5085309;28;20223;-63
2021/05/30 00:27:35;;;;;;;35.33;21.17;;;10.70;99.90;;;;;;5089335;28;20648;-64
2021/05/30 00:30:04;;;;;;;34.43;20.87;;;10.60;99.90;;;;;;5076857;28;20214;-64
2021/05/30 00:32:32;;;;;;;41.30;21.17;;;10.60;99.90;;;;;;5090223;28;20206;-64
2021/05/30 00:35:01;;;;;;;38.00;22.60;;;10.60;99.90;;;;;;5086905;28;20179;-64
2021/05/30 00:37:29;;;;;;;37.47;21.77;;;10.60;99.90;;;;;;5085786;28;20192;-64
2021/05/30 00:39:57;;;;;;;35.70;21.43;;;10.50;99.90;;;;;;5075566;28;20191;-64
2021/05/30 00:42:25;;;;;;;41.97;22.53;;;10.50;99.90;;;;;;5085921;28;20252;-64
2021/05/30 00:44:53;;;;;;;36.93;21.73;;;10.50;99.90;;;;;;5086772;28;20535;-63
2021/05/30 00:47:21;;;;;;;37.03;22.17;;;10.50;99.90;;;;;;5088932;28;20608;-64
2021/05/30 00:49:49;;;;;;;41.37;23.23;;;10.40;99.90;;;;;;5088473;28;20268;-64
2021/05/30 00:52:18;;;;;;;37.73;21.97;;;10.40;99.90;;;;;;5084360;28;20196;-64
2021/05/30 00:54:46;;;;;;;39.73;22.77;;;10.40;99.90;;;;;;5081232;28;20242;-64
2021/05/30 00:57:14;;;;;;;39.00;22.37;;;10.40;99.90;;;;;;5082185;28;20192;-64
2021/05/30 00:59:42;;;;;;;39.73;22.90;;;10.30;99.90;;;;;;5086607;28;20188;-63
2021/05/30 01:02:11;;;;;;;41.07;22.77;;;10.30;99.90;;;;;;5085954;28;20199;-64
2021/05/30 01:04:39;;;;;;;37.53;22.53;;;10.20;99.90;;;;;;5085467;28;20195;-64
2021/05/30 01:07:07;;;;;;;41.23;22.80;;;10.20;99.90;;;;;;5082153;28;20381;-64
2021/05/30 01:09:36;;;;;;;40.77;22.53;;;10.20;99.90;;;;;;5087254;28;20314;-64
2021/05/30 01:12:08;;;;;;;39.23;23.47;;;10.10;99.90;;;;;;5084868;28;20191;-64
2021/05/30 01:14:37;;;;;;;42.93;23.90;;;10.10;99.90;;;;;;5072523;28;20280;-64
2021/05/30 01:17:06;;;;;;;42.90;22.93;;;10.10;99.90;;;;;;5089243;28;20227;-64
2021/05/30 01:19:34;;;;;;;43.63;23.30;;;10.10;99.90;;;;;;5083480;28;20678;-64
2021/05/30 01:22:06;;;;;;;41.27;23.63;;;10.10;99.90;;;;;;5088219;28;20195;-64
2021/05/30 01:24:37;;;;;;;43.50;22.27;;;10.10;99.90;;;;;;5089376;28;20359;-64
2021/05/30 01:27:06;;;;;;;41.83;23.17;;;10.10;99.90;;;;;;5084351;28;20659;-64
2021/05/30 01:29:33;;;;;;;40.27;22.33;;;10.00;99.90;;;;;;5078730;28;20235;-64
2021/05/30 01:32:01;;;;;;;42.37;24.37;;;10.00;99.90;;;;;;5085415;28;20615;-64
2021/05/30 01:34:29;;;;;;;42.87;23.37;;;9.90;99.90;;;;;;5084128;28;20187;-63
2021/05/30 01:36:57;;;;;;;46.70;24.53;;;9.90;99.90;;;;;;5085261;28;20647;-63
2021/05/30 01:39:26;;;;;;;46.07;23.87;;;9.90;99.90;;;;;;5076675;28;20187;-64
2021/05/30 01:41:55;;;;;;;43.57;24.47;;;9.90;99.90;;;;;;5086166;28;20188;-64
2021/05/30 01:44:23;;;;;;;38.80;23.20;;;9.80;99.90;;;;;;5088602;28;20187;-64
2021/05/30 01:46:51;;;;;;;42.27;24.20;;;9.80;99.90;;;;;;5083407;28;20242;-63
2021/05/30 01:49:19;;;;;;;41.07;23.90;;;9.80;99.90;;;;;;5086920;28;20238;-64
2021/05/30 01:51:47;;;;;;;40.33;23.40;;;9.80;99.90;;;;;;5079588;28;20245;-63
2021/05/30 01:54:18;;;;;;;41.00;23.10;;;9.70;99.90;;;;;;5084643;28;20195;-64
2021/05/30 01:56:55;;;;;;;42.30;24.27;;;9.60;99.90;;;;;;5084868;28;20188;-63
2021/05/30 01:59:25;;;;;;;43.60;24.53;;;9.60;99.90;;;;;;5086477;28;20693;-63
2021/05/30 02:01:55;;;;;;;44.10;23.57;;;9.60;99.90;;;;;;5085690;28;20199;-63
2021/05/30 02:04:27;;;;;;;43.90;23.67;;;9.60;99.90;;;;;;5100157;28;20192;-63
2021/05/30 02:06:55;;;;;;;42.73;24.33;;;9.50;99.90;;;;;;5102448;28;20195;-64
2021/05/30 02:09:23;;;;;;;43.63;25.33;;;9.50;99.90;;;;;;5087600;28;20749;-64
2021/05/30 02:11:51;;;;;;;45.10;23.70;;;9.40;99.90;;;;;;5081035;28;20273;-63
2021/05/30 02:14:20;;;;;;;46.60;25.17;;;9.40;99.90;;;;;;5078144;28;20316;-64
2021/05/30 02:16:49;;;;;;;46.13;24.87;;;9.40;99.90;;;;;;5083358;28;20191;-63
2021/05/30 02:19:17;;;;;;;45.00;24.33;;;9.40;99.90;;;;;;5086763;28;20199;-63
2021/05/30 02:21:49;;;;;;;46.63;25.07;;;9.40;99.90;;;;;;5080936;28;20718;-63
2021/05/30 02:24:19;;;;;;;48.43;24.73;;;9.40;99.90;;;;;;5083652;28;20386;-64
2021/05/30 02:26:48;;;;;;;42.70;24.33;;;9.40;99.90;;;;;;5083426;28;20187;-64
2021/05/30 02:29:28;;;;;;;43.20;24.53;;;9.40;99.90;;;;;;5076559;28;20257;-64
2021/05/30 02:31:57;;;;;;;46.40;24.53;;;9.30;99.90;;;;;;5082374;28;20192;-64
2021/05/30 02:34:25;;;;;;;44.60;25.83;;;9.30;99.90;;;;;;5081835;28;20213;-63
2021/05/30 02:36:53;;;;;;;51.43;26.30;;;9.30;99.90;;;;;;5084898;28;20787;-62
2021/05/30 02:39:21;;;;;;;51.97;26.43;;;9.20;99.90;;;;;;5091744;28;20202;-64
2021/05/30 02:41:48;;;;;;;46.37;25.07;;;9.20;99.90;;;;;;5075626;28;20252;-63
2021/05/30 02:44:16;;;;;;;47.07;25.50;;;9.20;99.90;;;;;;5088011;28;20187;-63
2021/05/30 02:46:45;;;;;;;47.77;24.70;;;9.20;99.90;;;;;;5086423;28;20740;-63
2021/05/30 02:49:13;;;;;;;44.77;24.53;;;9.20;99.90;;;;;;5082782;28;20272;-64
2021/05/30 02:51:41;;;;;;;48.17;25.30;;;9.10;99.90;;;;;;5084166;28;20685;-64
2021/05/30 02:54:10;;;;;;;43.23;24.83;;;9.10;99.90;;;;;;5088345;28;20255;-64
2021/05/30 02:56:38;;;;;;;41.13;23.17;;;9.10;99.90;;;;;;5086874;28;20199;-64
2021/05/30 02:59:05;;;;;;;42.87;23.23;;;9.00;99.90;;;;;;5082740;28;20187;-64
2021/05/30 03:01:34;;;;;;;39.20;22.80;;;9.00;99.90;;;;;;5083783;28;20199;-64
2021/05/30 03:04:02;;;;;;;45.30;23.83;;;9.00;99.90;;;;;;5082987;28;20185;-63
2021/05/30 03:06:30;;;;;;;43.93;23.80;;;9.00;99.90;;;;;;5085949;28;20199;-63
2021/05/30 03:08:59;;;;;;;40.73;22.97;;;8.90;99.90;;;;;;5088977;28;20207;-63
2021/05/30 03:11:27;;;;;;;42.53;24.67;;;8.90;99.90;;;;;;5088266;28;20233;-63
2021/05/30 03:13:55;;;;;;;42.90;22.27;;;8.90;99.90;;;;;;5077637;28;20237;-62
2021/05/30 03:16:24;;;;;;;41.00;22.37;;;8.80;99.90;;;;;;5082388;28;20571;-64
2021/05/30 03:18:52;;;;;;;43.70;23.57;;;8.80;99.90;;;;;;5087685;28;20191;-62
2021/05/30 03:21:20;;;;;;;42.23;22.50;;;8.80;99.90;;;;;;5083607;28;20230;-63
2021/05/30 03:23:49;;;;;;;50.53;24.10;;;8.80;99.90;;;;;;5085982;28;20671;-63
2021/05/30 03:26:17;;;;;;;47.07;23.20;;;8.80;99.90;;;;;;5087752;28;20199;-63
2021/05/30 03:28:44;;;;;;;41.07;22.27;;;8.80;99.90;;;;;;5087925;28;20215;-63
2021/05/30 03:31:13;;;;;;;48.27;24.37;;;8.80;99.90;;;;;;5087791;28;20966;-63
2021/05/30 03:33:41;;;;;;;44.57;24.03;;;8.80;99.90;;;;;;5095171;28;20207;-63
2021/05/30 03:36:13;;;;;;;44.50;23.13;;;8.80;99.90;;;;;;5086180;28;20284;-64
2021/05/30 03:38:42;;;;;;;47.33;23.53;;;8.70;99.90;;;;;;5094014;28;20257;-63
2021/05/30 03:41:13;;;;;;;45.80;23.97;;;8.80;99.90;;;;;;5086282;28;21876;-64
2021/05/30 03:43:41;;;;;;;45.40;23.43;;;8.80;99.90;;;;;;5086326;28;20192;-63
2021/05/30 03:46:09;;;;;;;44.00;22.87;;;8.80;99.90;;;;;;5091642;28;20217;-64
2021/05/30 03:48:37;;;;;;;41.23;23.00;;;8.80;99.90;;;;;;5083524;28;20574;-63
2021/05/30 03:51:05;;;;;;;46.13;24.20;;;8.80;99.90;;;;;;5090140;28;20191;-63
2021/05/30 03:53:33;;;;;;;45.37;23.60;;;8.80;99.90;;;;;;5080577;28;20191;-63
2021/05/30 03:56:01;;;;;;;45.83;22.97;;;8.80;99.90;;;;;;5089594;28;20676;-64
2021/05/30 03:58:31;;;;;;;43.50;22.37;;;8.80;99.90;;;;;;5080564;28;20237;-64
2021/05/30 04:00:59;;;;;;;38.10;20.87;;;8.80;99.90;;;;;;5086890;28;20196;-64
2021/05/30 04:03:27;;;;;;;39.57;21.53;;;8.80;99.90;;;;;;5080438;28;20191;-64
2021/05/30 04:05:55;;;;;;;46.23;23.13;;;8.80;99.90;;;;;;5084524;28;20263;-63
2021/05/30 04:08:23;;;;;;;41.87;22.63;;;8.80;99.90;;;;;;5085245;28;20194;-63
2021/05/30 04:10:51;;;;;;;44.77;21.67;;;8.80;99.90;;;;;;5088815;28;20211;-62
2021/05/30 04:13:19;;;;;;;45.17;22.37;;;8.80;99.90;;;;;;5086961;28;20191;-63
2021/05/30 04:15:48;;;;;;;41.30;23.17;;;8.80;99.90;;;;;;5080704;28;20777;-63
2021/05/30 04:18:16;;;;;;;40.93;21.37;;;8.90;99.90;;;;;;5097824;28;20195;-63
2021/05/30 04:20:43;;;;;;;45.10;22.13;;;8.90;99.90;;;;;;5092616;28;20225;-63
2021/05/30 04:23:11;;;;;;;40.10;20.87;;;9.00;99.90;;;;;;5085061;28;20605;-64
2021/05/30 04:25:41;;;;;;;39.17;22.07;;;9.00;99.90;;;;;;5084694;28;20219;-64
2021/05/30 04:28:08;;;;;;;40.07;22.03;;;9.00;99.90;;;;;;5093191;28;20203;-63
2021/05/30 04:30:36;;;;;;;37.07;21.67;;;9.00;99.90;;;;;;5087636;28;20215;-63
2021/05/30 04:33:05;;;;;;;40.83;21.13;;;9.10;99.90;;;;;;5093606;28;20210;-63
2021/05/30 04:35:33;;;;;;;41.20;21.93;;;9.10;99.90;;;;;;5091610;28;20613;-63
2021/05/30 04:38:01;;;;;;;39.43;21.50;;;9.20;99.90;;;;;;5087568;28;20233;-63
2021/05/30 04:40:29;;;;;;;40.40;22.30;;;9.20;99.90;;;;;;5086767;28;20237;-63
2021/05/30 04:42:59;;;;;;;45.40;22.53;;;9.30;99.90;;;;;;5091034;28;20191;-63
2021/05/30 04:45:27;;;;;;;42.10;21.73;;;9.40;99.90;;;;;;5088135;28;20199;-64
2021/05/30 04:47:55;;;;;;;39.80;21.13;;;9.50;99.90;;;;;;5088145;28;20240;-63
2021/05/30 04:50:24;;;;;;;42.07;22.07;;;9.50;99.90;;;;;;5086990;28;20295;-64
2021/05/30 04:52:52;;;;;;;37.67;21.67;;;9.70;99.90;;;;;;5087849;28;20210;-62
2021/05/30 04:55:20;;;;;;;39.03;22.40;;;9.80;99.90;;;;;;5091416;28;20195;-63
2021/05/30 04:57:48;;;;;;;43.47;24.23;;;9.80;99.90;;;;;;5075842;28;20199;-63
2021/05/30 05:00:17;;;;;;;44.30;25.07;;;9.90;99.90;;;;;;5084775;28;20176;-63
2021/05/30 05:02:45;;;;;;;40.80;23.67;;;10.00;99.90;;;;;;5089164;28;20198;-63
2021/05/30 05:05:14;;;;;;;38.97;22.17;;;10.10;99.90;;;;;;5075499;28;20192;-64
2021/05/30 05:07:44;;;;;;;36.50;21.17;;;10.20;99.90;;;;;;5076564;28;20593;-64
2021/05/30 05:10:13;;;;;;;42.17;21.47;;;10.30;99.90;;;;;;5081560;28;20211;-63
2021/05/30 05:12:41;;;;;;;32.83;20.10;;;10.40;99.90;;;;;;5088303;28;20192;-64
2021/05/30 05:15:10;;;;;;;41.40;22.90;;;10.50;99.90;;;;;;5082363;28;20184;-64
2021/05/30 05:17:38;;;;;;;36.63;21.00;;;10.70;99.90;;;;;;5084089;28;20654;-63
2021/05/30 05:20:07;;;;;;;39.50;21.47;;;10.80;99.90;;;;;;5089377;28;20214;-64
2021/05/30 05:22:35;;;;;;;35.30;21.20;;;10.90;99.90;;;;;;5083006;28;20211;-64
2021/05/30 05:25:05;;;;;;;33.00;20.77;;;10.90;99.90;;;;;;5086672;28;20383;-63
2021/05/30 05:27:32;;;;;;;31.70;20.17;;;10.90;99.90;;;;;;5083370;28;20210;-64
2021/05/30 05:30:00;;;;;;;33.67;20.63;;;11.00;99.90;;;;;;5084468;28;20211;-63
2021/05/30 05:32:28;;;;;;;39.67;22.93;;;11.00;99.90;;;;;;5072007;28;20196;-63
2021/05/30 05:34:57;;;;;;;34.03;21.53;;;11.10;99.90;;;;;;5084432;28;20191;-63
2021/05/30 05:37:24;;;;;;;41.40;24.70;;;11.20;99.90;;;;;;5088193;28;20195;-64
2021/05/30 05:39:52;;;;;;;42.43;24.57;;;11.30;99.90;;;;;;5077690;28;20237;-64
2021/05/30 05:42:22;;;;;;;41.30;23.63;;;11.30;99.90;;;;;;5093357;28;20191;-63
2021/05/30 05:44:50;;;;;;;40.07;24.07;;;11.30;99.90;;;;;;5088733;28;20199;-61
2021/05/30 05:47:18;;;;;;;37.97;24.13;;;11.30;99.90;;;;;;5090188;28;20192;-64
2021/05/30 05:49:49;;;;;;;41.60;24.63;;;11.30;99.90;;;;;;5088078;28;20306;-63
2021/05/30 05:52:17;;;;;;;44.73;25.20;;;11.30;99.90;;;;;;5088780;28;20538;-64
2021/05/30 05:54:49;;;;;;;45.23;26.67;;;11.40;99.90;;;;;;5091313;28;20220;-64
2021/05/30 05:57:16;;;;;;;46.73;26.53;;;11.50;99.90;;;;;;5091156;28;20203;-64
2021/05/30 05:59:45;;;;;;;48.87;27.43;;;11.50;99.90;;;;;;5090366;28;20183;-64
2021/05/30 06:02:13;;;;;;;45.30;26.57;;;11.50;99.90;;;;;;5092261;28;20732;-64
2021/05/30 06:04:44;;;;;;;47.47;26.50;;;11.50;99.90;;;;;;5086615;28;20552;-64
2021/05/30 06:07:13;;;;;;;44.87;26.77;;;11.50;99.90;;;;;;5086407;28;20203;-63
2021/05/30 06:09:41;;;;;;;45.87;27.10;;;11.60;99.90;;;;;;5085361;28;20240;-64
2021/05/30 06:12:10;;;;;;;44.63;26.67;;;11.70;99.90;;;;;;5090002;28;20191;-64
2021/05/30 06:14:38;;;;;;;45.53;26.70;;;11.80;99.90;;;;;;5089972;28;20191;-64
2021/05/30 06:17:07;;;;;;;46.87;28.27;;;11.80;99.90;;;;;;5085422;28;20192;-64
2021/05/30 06:19:37;;;;;;;41.53;26.90;;;11.90;99.90;;;;;;5089596;28;20199;-64
2021/05/30 06:22:06;;;;;;;47.20;27.50;;;12.00;99.90;;;;;;5082818;28;20591;-64
2021/05/30 06:24:35;;;;;;;43.47;27.43;;;12.10;99.90;;;;;;5087839;28;20237;-64
2021/05/30 06:27:04;;;;;;;43.40;27.20;;;12.20;99.90;;;;;;5080430;28;20570;-64
2021/05/30 06:29:32;;;;;;;46.60;27.77;;;12.30;99.90;;;;;;5085737;28;20600;-64
2021/05/30 06:32:00;;;;;;;43.07;26.97;;;12.30;99.90;;;;;;5087200;28;20239;-64
2021/05/30 06:34:28;;;;;;;41.80;27.53;;;12.40;99.90;;;;;;5087018;28;20290;-64
2021/05/30 06:36:57;;;;;;;40.13;25.43;;;12.60;99.90;;;;;;5086545;28;20191;-63
2021/05/30 06:39:28;;;;;;;42.00;26.23;;;12.80;99.90;;;;;;5084276;28;20196;-64
2021/05/30 06:41:55;;;;;;;37.43;25.63;;;12.90;99.90;;;;;;5085959;28;20210;-64
2021/05/30 06:44:24;;;;;;;40.33;25.47;;;12.90;99.90;;;;;;5081560;28;20195;-63
2021/05/30 06:46:52;;;;;;;39.37;26.53;;;13.10;99.90;;;;;;5079293;28;20198;-64
2021/05/30 06:49:20;;;;;;;40.47;25.53;;;13.20;99.90;;;;;;5083818;28;20191;-64
2021/05/30 06:51:49;;;;;;;41.87;26.27;;;13.10;99.90;;;;;;5084831;28;20203;-64
2021/05/30 06:54:17;;;;;;;39.03;26.43;;;13.10;99.90;;;;;;5079738;28;20188;-64
2021/05/30 06:56:45;;;;;;;37.03;25.93;;;13.20;99.90;;;;;;5079866;28;20256;-64
2021/05/30 06:59:13;;;;;;;42.13;26.03;;;13.50;99.90;;;;;;5086495;28;20207;-64
2021/05/30 07:01:41;;;;;;;38.93;25.63;;;13.70;99.90;;;;;;5086570;28;20191;-64
2021/05/30 07:04:12;;;;;;;38.13;24.47;;;13.90;99.90;;;;;;5088920;28;20286;-65
2021/05/30 07:06:40;;;;;;;36.93;24.27;;;14.10;99.90;;;;;;5070521;28;20597;-64
2021/05/30 07:09:08;;;;;;;37.40;25.13;;;14.60;99.90;;;;;;5091787;28;20183;-64
2021/05/30 07:11:36;;;;;;;36.77;24.43;;;14.70;99.90;;;;;;5084300;28;20221;-65
2021/05/30 07:14:05;;;;;;;34.10;24.17;;;14.70;99.90;;;;;;5084963;28;20719;-64
2021/05/30 07:16:33;;;;;;;32.07;22.70;;;14.70;99.90;;;;;;5078207;28;20198;-65
2021/05/30 07:19:01;;;;;;;35.00;23.23;;;14.80;99.90;;;;;;5087582;28;20226;-64
2021/05/30 07:21:29;;;;;;;31.47;22.90;;;14.90;99.90;;;;;;5079735;28;20182;-64
2021/05/30 07:23:57;;;;;;;34.73;22.83;;;15.20;99.90;;;;;;5072669;28;20188;-65
2021/05/30 07:26:26;;;;;;;32.63;22.83;;;15.40;99.90;;;;;;5079373;28;20190;-64
2021/05/30 07:28:54;;;;;;;33.00;23.60;;;15.50;99.90;;;;;;5075333;28;20314;-64
2021/05/30 07:31:21;;;;;;;29.20;22.03;;;15.70;99.90;;;;;;5082359;28;20205;-65
2021/05/30 07:33:49;;;;;;;27.13;21.20;;;15.70;99.90;;;;;;5079009;28;20207;-64
2021/05/30 07:36:19;;;;;;;30.57;22.53;;;15.90;99.90;;;;;;5082888;28;20195;-65
2021/05/30 07:38:47;;;;;;;29.43;21.20;;;16.00;99.90;;;;;;5086172;28;20188;-65
2021/05/30 07:41:17;;;;;;;27.23;20.67;;;16.20;99.90;;;;;;5087260;28;20195;-62
2021/05/30 07:43:46;;;;;;;31.23;20.07;;;16.40;99.90;;;;;;5078831;28;20203;-62
2021/05/30 07:46:14;;;;;;;26.37;21.10;;;16.60;99.90;;;;;;5089035;28;20192;-63
2021/05/30 07:48:42;;;;;;;25.63;20.47;;;16.80;99.90;;;;;;5090578;28;20203;-65
2021/05/30 07:51:12;;;;;;;26.10;20.00;;;17.20;99.90;;;;;;5090835;28;20210;-64
2021/05/30 07:53:40;;;;;;;26.80;19.57;;;17.30;99.90;;;;;;5086776;28;20202;-62
2021/05/30 07:56:08;;;;;;;26.60;20.33;;;17.50;99.90;;;;;;5092070;28;20194;-65
2021/05/30 07:58:35;;;;;;;26.60;20.57;;;17.60;99.90;;;;;;5089244;28;20187;-65
2021/05/30 08:01:05;;;;;;;25.03;19.03;;;17.80;99.90;;;;;;5091195;28;20553;-65
2021/05/30 08:03:32;;;;;;;24.73;19.43;;;17.90;99.90;;;;;;5089880;28;20187;-63
2021/05/30 08:06:02;;;;;;;26.60;20.33;;;18.00;99.90;;;;;;5088109;28;20416;-63
2021/05/30 08:08:29;;;;;;;24.23;19.33;;;18.30;99.90;;;;;;5086209;28;20188;-65
2021/05/30 08:10:57;;;;;;;27.13;19.33;;;18.40;99.90;;;;;;5084155;28;20206;-63
2021/05/30 08:13:25;;;;;;;24.90;18.53;;;18.50;99.90;;;;;;5094862;28;20199;-65
2021/05/30 08:15:53;;;;;;;25.43;19.20;;;19.30;99.90;;;;;;5085710;28;20196;-62
2021/05/30 08:18:22;;;;;;;25.03;18.87;;;19.50;99.90;;;;;;5070560;28;20567;-63
2021/05/30 08:20:50;;;;;;;22.60;18.97;;;19.70;99.90;;;;;;5082684;28;20181;-63
2021/05/30 08:23:18;;;;;;;24.73;18.20;;;19.90;99.90;;;;;;5085846;28;20194;-63
2021/05/30 08:25:46;;;;;;;23.60;17.20;;;20.10;99.90;;;;;;5077087;28;20243;-63
2021/05/30 08:28:14;;;;;;;20.47;16.87;;;20.30;99.90;;;;;;5089853;28;20194;-63
2021/05/30 08:30:42;;;;;;;20.43;17.00;;;20.80;99.90;;;;;;5091907;28;20251;-63
2021/05/30 08:33:09;;;;;;;19.27;16.23;;;21.00;99.90;;;;;;5088808;28;20222;-62
2021/05/30 08:35:39;;;;;;;20.13;17.10;;;21.30;99.90;;;;;;5087114;28;20838;-63
2021/05/30 08:38:20;;;;;;;18.60;15.53;;;21.60;99.90;;;;;;5075468;28;20191;-62
2021/05/30 08:40:58;;;;;;;19.43;16.17;;;21.60;99.90;;;;;;5086823;28;20183;-63
2021/05/30 08:43:26;;;;;;;18.37;16.33;;;21.90;99.90;;;;;;5081299;28;20654;-62
2021/05/30 08:45:54;;;;;;;18.92;16.30;;;22.20;99.90;;;;;;5093987;28;20202;-63
2021/05/30 08:48:23;;;;;;;20.65;16.85;;;22.30;99.90;;;;;;5095965;28;20191;-63
2021/05/30 08:51:03;;;;;;;16.92;15.02;;;23.00;99.90;;;;;;5090017;28;20595;-63
2021/05/30 08:53:33;;;;;;;16.77;14.40;;;22.90;99.90;;;;;;5088136;28;20678;-63
2021/05/30 08:56:06;;;;;;;18.35;16.05;;;23.20;99.90;;;;;;5083852;28;20193;-64
2021/05/30 08:58:38;;;;;;;17.00;14.30;;;23.30;99.90;;;;;;5084215;28;20197;-63
2021/05/30 09:01:11;;;;;;;16.27;14.05;;;23.50;99.90;;;;;;5082794;28;20301;-63
2021/05/30 09:03:57;;;;;;;15.50;13.88;;;23.30;99.90;;;;;;5088690;28;20190;-64
2021/05/30 09:06:27;;;;;;;16.98;14.02;;;23.60;99.90;;;;;;5082274;28;20193;-63
2021/05/30 09:08:55;;;;;;;16.70;12.55;;;23.60;99.90;;;;;;5084699;28;20193;-63
2021/05/30 09:11:40;;;;;;;19.33;15.32;;;23.20;99.90;;;;;;5087398;28;20225;-64
2021/05/30 09:14:12;;;;;;;18.60;14.15;;;23.30;99.90;;;;;;5080122;28;20191;-64
2021/05/30 09:16:52;;;;;;;17.48;13.50;;;23.20;99.90;;;;;;5078043;28;20190;-64
2021/05/30 09:19:38;;;;;;;15.57;13.57;;;23.30;99.90;;;;;;5086507;28;20649;-64
2021/05/30 09:22:25;;;;;;;17.88;14.65;;;23.40;99.90;;;;;;5087451;28;20199;-64
2021/05/30 09:25:02;;;;;;;15.27;13.35;;;23.60;99.90;;;;;;5081325;28;20781;-63
2021/05/30 09:27:34;;;;;;;13.68;12.07;;;23.80;99.90;;;;;;5089509;28;21255;-65
2021/05/30 09:30:11;;;;;;;15.88;13.20;;;23.90;99.90;;;;;;5088914;28;20575;-67
2021/05/30 09:33:04;;;;;;;18.30;12.93;;;24.10;99.90;;;;;;5071032;28;20207;-66
2021/05/30 09:35:51;;;;;;;16.63;12.93;;;24.30;99.90;;;;;;5093270;28;20176;-67
2021/05/30 09:38:23;;;;;;;16.42;13.15;;;24.60;99.90;;;;;;5099245;28;20233;-67
2021/05/30 09:40:53;;;;;;;12.73;11.32;;;25.00;99.90;;;;;;5100189;28;20183;-67
2021/05/30 09:43:22;;;;;;;15.85;11.10;;;25.00;99.90;;;;;;5095780;28;20195;-66
2021/05/30 09:45:59;;;;;;;19.42;10.98;;;25.10;99.90;;;;;;5069368;28;20213;-66
2021/05/30 09:48:28;;;;;;;15.10;12.05;;;25.20;99.90;;;;;;5109100;27;20203;-67
2021/05/30 09:51:04;;;;;;;15.52;12.60;;;25.40;99.90;;;;;;5092414;28;20367;-66
2021/05/30 09:53:35;;;;;;;12.57;11.02;;;25.20;99.90;;;;;;5101390;28;20232;-66
2021/05/30 09:56:04;;;;;;;11.98;10.77;;;25.10;99.90;;;;;;5097903;28;20428;-67
2021/05/30 09:58:31;;;;;;;12.38;10.73;;;25.20;99.90;;;;;;5098244;28;20192;-67
2021/05/30 10:01:04;;;;;;;15.65;11.52;;;25.50;99.90;;;;;;5092982;28;20273;-67
2021/05/30 10:03:33;;;;;;;14.02;10.30;;;25.30;99.90;;;;;;5095791;28;20206;-68
2021/05/30 10:06:01;;;;;;;12.00;9.90;;;25.50;99.90;;;;;;5090098;28;20350;-68
2021/05/30 10:08:29;;;;;;;16.30;10.77;;;25.60;99.90;;;;;;5106462;28;20194;-68
2021/05/30 10:10:58;;;;;;;11.38;10.18;;;25.70;99.90;;;;;;5096717;28;20363;-67
2021/05/30 10:13:26;;;;;;;12.23;8.93;;;25.10;99.90;;;;;;5102144;28;20446;-68
2021/05/30 10:15:54;;;;;;;12.85;10.25;;;25.40;99.90;;;;;;5098106;28;20244;-65
2021/05/30 10:18:26;;;;;;;13.32;9.15;;;25.60;99.90;;;;;;5100310;28;20190;-68
2021/05/30 10:20:55;;;;;;;10.77;9.65;;;25.80;99.90;;;;;;5094715;28;20426;-67
2021/05/30 10:23:24;;;;;;;11.45;9.20;;;26.20;99.90;;;;;;5095474;28;20195;-67
2021/05/30 10:26:15;;;;;;;10.40;9.20;;;26.40;99.90;;;;;;5103554;28;20211;-67
2021/05/30 10:28:48;;;;;;;12.68;9.20;;;26.10;99.90;;;;;;5098763;28;20191;-67
2021/05/30 10:31:21;;;;;;;12.75;10.65;;;25.80;99.90;;;;;;5097467;28;20209;-67
2021/05/30 10:34:26;;;;;;;9.25;8.30;;;25.40;99.90;;;;;;5096551;28;20184;-67
2021/05/30 10:37:23;;;;;;;8.85;8.05;;;25.00;99.90;;;;;;5103445;28;20415;-67
2021/05/30 10:39:52;;;;;;;9.40;8.48;;;25.20;99.90;;;;;;5093198;28;20272;-69
2021/05/30 10:42:23;;;;;;;11.38;8.73;;;25.30;98.10;;;;;;5102439;28;20361;-67
2021/05/30 10:44:55;;;;;;;10.70;8.50;;;25.20;98.10;;;;;;5088896;28;20185;-68
2021/05/30 10:48:09;;;;;;;9.52;8.38;;;25.10;98.40;;;;;;5087336;28;20194;-67
2021/05/30 10:50:40;;;;;;;9.63;8.15;;;25.30;99.90;;;;;;5100962;28;20189;-67
2021/05/30 10:53:33;;;;;;;10.48;9.00;;;25.70;99.90;;;;;;5095999;28;20182;-68
2021/05/30 10:56:19;;;;;;;12.18;10.48;;;25.70;99.90;;;;;;5100023;28;20184;-68
2021/05/30 10:59:22;;;;;;;10.15;8.82;;;25.60;98.30;;;;;;5093945;28;20200;-69
2021/05/30 11:01:51;;;;;;;10.80;9.23;;;25.50;99.90;;;;;;5083125;28;20203;-68
2021/05/30 11:04:43;;;;;;;11.48;8.02;;;25.60;98.60;;;;;;5099398;28;20187;-68
2021/05/30 11:07:40;;;;;;;6.80;6.20;;;25.70;98.90;;;;;;5073283;28;20353;-69
2021/05/30 11:10:13;;;;;;;9.02;8.07;;;25.60;97.20;;;;;;5099162;28;20357;-70
2021/05/30 11:13:02;;;;;;;7.63;6.87;;;25.20;94.20;;;;;;5096428;28;20499;-69
2021/05/30 11:15:32;;;;;;;8.33;6.03;;;24.70;96.40;;;;;;5081225;28;20186;-69
2021/05/30 11:18:02;;;;;;;6.23;5.63;;;24.50;98.20;;;;;;5099772;28;20297;-70
2021/05/30 11:20:46;;;;;;;7.47;5.80;;;24.40;96.40;;;;;;5097153;28;20183;-70
2021/05/30 11:23:20;;;;;;;6.13;5.60;;;24.10;94.90;;;;;;5097968;28;20278;-69
2021/05/30 11:25:51;;;;;;;7.67;6.70;;;24.10;96.90;;;;;;5091953;27;20235;-70
2021/05/30 11:28:20;;;;;;;7.20;6.17;;;24.10;96.20;;;;;;5094909;28;20189;-71
2021/05/30 11:30:52;;;;;;;6.27;5.73;;;24.20;97.00;;;;;;5098109;28;20184;-71
2021/05/30 11:33:39;;;;;;;9.00;6.77;;;24.20;99.10;;;;;;5097010;28;20317;-71
2021/05/30 11:36:09;;;;;;;6.43;5.93;;;24.40;97.10;;;;;;5092704;28;20178;-71
2021/05/30 11:38:41;;;;;;;6.50;5.90;;;24.20;97.70;;;;;;5101034;28;21160;-68
2021/05/30 11:41:11;;;;;;;6.60;5.93;;;24.10;97.60;;;;;;5095555;28;20206;-71
2021/05/30 11:43:39;;;;;;;8.80;7.13;;;24.10;96.80;;;;;;5104278;28;20372;-71
2021/05/30 11:46:14;;;;;;;7.83;7.03;;;24.10;96.40;;;;;;5101123;28;20193;-71
2021/05/30 11:48:42;;;;;;;8.30;7.53;;;24.10;97.20;;;;;;5102841;28;20185;-71
2021/05/30 11:51:10;;;;;;;8.40;6.97;;;24.00;97.20;;;;;;5098558;28;20193;-70
2021/05/30 11:53:38;;;;;;;10.80;7.90;;;23.80;97.00;;;;;;5098883;28;20187;-71
2021/05/30 11:56:06;;;;;;;8.33;5.80;;;24.10;99.50;;;;;;5097569;28;20187;-71
2021/05/30 11:58:45;;;;;;;8.83;7.47;;;23.90;98.90;;;;;;5107940;28;20352;-71
2021/05/30 12:01:14;;;;;;;7.63;6.80;;;24.00;99.90;;;;;;5097270;28;20265;-71
2021/05/30 12:03:49;;;;;;;29.70;26.57;;;24.10;98.40;;;;;;5099832;28;20230;-70
2021/05/30 12:06:17;;;;;;;8.17;6.93;;;24.00;99.90;;;;;;5101644;28;20360;-72
2021/05/30 12:08:54;;;;;;;14.27;12.97;;;24.10;98.80;;;;;;5107979;28;20236;-72
2021/05/30 12:11:29;;;;;;;5.60;5.10;;;24.00;99.90;;;;;;5102970;28;20358;-72
2021/05/30 12:14:03;;;;;;;5.47;4.10;;;24.10;99.40;;;;;;5101087;28;20215;-70
2021/05/30 12:16:34;;;;;;;5.43;5.03;;;23.80;97.00;;;;;;5090503;28;20275;-73
2021/05/30 12:19:04;;;;;;;5.77;5.27;;;23.60;98.60;;;;;;5097245;28;20239;-72
2021/05/30 12:21:39;;;;;;;6.00;5.33;;;23.50;97.00;;;;;;5098748;28;20234;-71
2021/05/30 12:24:09;;;;;;;5.60;5.13;;;23.60;99.60;;;;;;5100617;28;20191;-71
2021/05/30 12:26:40;;;;;;;8.23;6.93;;;23.60;99.30;;;;;;5102888;28;20235;-71
2021/05/30 12:29:09;;;;;;;5.70;5.20;;;23.50;99.90;;;;;;5100182;28;20187;-71
2021/05/30 12:31:38;;;;;;;8.50;6.40;;;23.60;99.80;;;;;;5103410;28;20206;-71
2021/05/30 12:34:09;;;;;;;6.33;5.70;;;23.50;96.90;;;;;;5099071;28;20182;-74
2021/05/30 12:36:39;;;;;;;5.50;5.07;;;23.20;97.10;;;;;;5099051;28;20187;-73
2021/05/30 12:39:12;;;;;;;6.67;4.70;;;23.00;97.70;;;;;;5101119;28;20183;-72
2021/05/30 12:41:43;;;;;;;4.80;4.40;;;22.80;96.40;;;;;;5097908;28;20464;-71
2021/05/30 12:44:14;;;;;;;5.20;4.80;;;22.90;97.60;;;;;;5096069;28;20179;-69
2021/05/30 12:46:55;;;;;;;4.80;4.40;;;23.00;99.20;;;;;;5102364;28;20188;-71
2021/05/30 12:49:23;;;;;;;4.83;4.47;;;22.90;96.60;;;;;;5100866;28;20264;-68